createdAt,value
2023-01-01T00:01:53.429Z,93.30
2023-01-01T00:04:23.391Z,93.10
2023-01-01T00:06:53.295Z,93.10
2023-01-01T00:09:35.755Z,93.20
2023-01-01T00:12:05.730Z,93.30
2023-01-01T00:14:35.578Z,93.30
2023-01-01T00:17:05.498Z,93.20
2023-01-01T00:19:35.280Z,93.30
2023-01-01T00:22:27.799Z,93.30
2023-01-01T00:24:55.233Z,93.20
2023-01-01T00:27:25.102Z,93.10
2023-01-01T00:29:54.942Z,93.10
2023-01-01T00:32:25.095Z,93.00
2023-01-01T00:34:55.061Z,93.00
2023-01-01T00:37:25.076Z,93.20
2023-01-01T00:39:54.992Z,93.20
2023-01-01T00:42:24.903Z,93.20
2023-01-01T00:44:54.808Z,93.20
2023-01-01T00:47:24.664Z,93.30
2023-01-01T00:49:54.586Z,93.40
2023-01-01T00:52:24.613Z,93.40
2023-01-01T00:54:54.537Z,93.30
2023-01-01T00:57:25.314Z,93.30
2023-01-01T00:59:55.049Z,93.30
2023-01-01T01:02:25.155Z,93.30
2023-01-01T01:04:55.273Z,93.30
2023-01-01T01:07:25.678Z,93.30
2023-01-01T01:09:55.597Z,93.30
2023-01-01T01:12:25.519Z,93.40
2023-01-01T01:14:58.548Z,93.30
2023-01-01T01:17:28.590Z,93.40
2023-01-01T01:19:58.449Z,93.50
2023-01-01T01:22:29.184Z,93.50
2023-01-01T01:24:58.911Z,93.50
2023-01-01T01:27:29.164Z,93.50
2023-01-01T01:29:59.014Z,93.50
2023-01-01T01:32:28.849Z,93.60
2023-01-01T01:34:58.764Z,93.70
2023-01-01T01:37:28.615Z,93.70
2023-01-01T01:39:58.456Z,93.70
2023-01-01T01:42:28.431Z,93.60
2023-01-01T01:45:03.410Z,93.60
2023-01-01T01:47:52.977Z,93.50
2023-01-01T01:50:36.022Z,93.70
2023-01-01T01:53:22.015Z,93.70
2023-01-01T01:56:03.740Z,93.70
2023-01-01T01:58:37.316Z,93.60
2023-01-01T02:01:08.452Z,93.50
2023-01-01T02:03:52.076Z,93.50
2023-01-01T02:06:23.728Z,93.50
2023-01-01T02:08:53.940Z,93.50
2023-01-01T02:11:27.109Z,93.50
2023-01-01T02:13:58.475Z,93.40
2023-01-01T02:16:59.543Z,93.30
2023-01-01T02:20:01.638Z,93.30
2023-01-01T02:23:03.932Z,93.30
2023-01-01T02:26:17.271Z,93.30
2023-01-01T02:29:08.291Z,93.10
2023-01-01T02:31:45.739Z,92.90
2023-01-01T02:34:23.832Z,92.70
2023-01-01T02:36:57.486Z,92.60
2023-01-01T02:39:34.105Z,92.50
2023-01-01T02:42:10.660Z,92.50
2023-01-01T02:44:46.143Z,92.50
2023-01-01T02:47:20.907Z,92.50
2023-01-01T02:50:19.213Z,92.30
2023-01-01T02:53:11.031Z,92.10
2023-01-01T02:56:09.095Z,91.70
2023-01-01T02:59:15.911Z,91.60
2023-01-01T03:01:56.613Z,91.50
2023-01-01T03:04:56.869Z,91.40
2023-01-01T03:07:57.032Z,91.20
2023-01-01T03:10:42.700Z,90.50
2023-01-01T03:13:30.857Z,90.20
2023-01-01T03:16:10.053Z,90.50
2023-01-01T03:18:46.871Z,90.70
2023-01-01T03:23:52.339Z,90.50
2023-01-01T03:34:19.100Z,92.30
2023-01-01T03:36:55.613Z,93.30
2023-01-01T03:39:31.558Z,92.90
2023-01-01T03:42:19.124Z,92.70
2023-01-01T03:44:54.706Z,91.90
2023-01-01T03:47:24.487Z,91.30
2023-01-01T03:49:54.451Z,90.70
2023-01-01T03:53:01.775Z,90.10
2023-01-01T03:55:39.559Z,90.20
2023-01-01T03:58:45.458Z,90.20
2023-01-01T04:01:37.864Z,90.30
2023-01-01T04:04:09.096Z,90.20
2023-01-01T04:06:38.962Z,90.10
2023-01-01T04:09:15.246Z,90.20
2023-01-01T04:12:00.241Z,90.00
2023-01-01T04:14:43.004Z,88.50
2023-01-01T04:17:14.355Z,87.90
2023-01-01T04:19:45.525Z,87.00
2023-01-01T04:22:19.753Z,87.10
2023-01-01T04:24:49.689Z,87.80
2023-01-01T04:27:19.597Z,88.10
2023-01-01T04:29:49.573Z,87.40
2023-01-01T04:32:19.622Z,87.90
2023-01-01T04:34:49.671Z,88.10
2023-01-01T04:37:19.597Z,87.40
2023-01-01T04:39:49.964Z,86.90
2023-01-01T04:42:19.844Z,86.80
2023-01-01T04:44:49.921Z,87.00
2023-01-01T04:47:20.016Z,87.00
2023-01-01T04:49:49.933Z,86.10
2023-01-01T04:52:19.843Z,84.90
2023-01-01T04:54:49.762Z,84.40
2023-01-01T04:57:20.424Z,84.30
2023-01-01T04:59:49.708Z,84.80
2023-01-01T05:02:19.694Z,84.90
2023-01-01T05:04:49.787Z,84.80
2023-01-01T05:07:19.644Z,84.80
2023-01-01T05:09:49.543Z,84.80
2023-01-01T05:12:19.488Z,84.50
2023-01-01T05:14:49.376Z,83.80
2023-01-01T05:17:19.343Z,83.40
2023-01-01T05:19:49.228Z,83.20
2023-01-01T05:22:19.164Z,82.60
2023-01-01T05:24:52.012Z,82.50
2023-01-01T05:27:22.018Z,82.20
2023-01-01T05:29:51.821Z,82.30
2023-01-01T05:32:21.733Z,82.50
2023-01-01T05:34:51.615Z,81.50
2023-01-01T05:37:21.559Z,80.70
2023-01-01T05:39:51.480Z,81.20
2023-01-01T05:42:21.707Z,80.80
2023-01-01T05:44:52.106Z,81.20
2023-01-01T05:47:24.970Z,81.30
2023-01-01T05:49:57.729Z,80.20
2023-01-01T05:52:27.691Z,80.50
2023-01-01T05:55:03.972Z,80.30
2023-01-01T05:57:34.091Z,79.50
2023-01-01T06:00:05.175Z,79.70
2023-01-01T06:02:35.039Z,77.90
2023-01-01T06:05:04.889Z,78.90
2023-01-01T06:07:34.794Z,78.10
2023-01-01T06:10:05.934Z,77.50
2023-01-01T06:12:36.024Z,77.70
2023-01-01T06:15:06.574Z,76.40
2023-01-01T06:17:40.283Z,75.70
2023-01-01T06:20:11.103Z,75.40
2023-01-01T06:22:41.471Z,75.10
2023-01-01T06:25:13.172Z,75.40
2023-01-01T06:27:44.572Z,75.40
2023-01-01T06:30:15.085Z,75.50
2023-01-01T06:32:48.566Z,75.90
2023-01-01T06:35:18.702Z,75.40
2023-01-01T06:37:49.784Z,73.80
2023-01-01T06:40:22.706Z,73.80
2023-01-01T06:42:52.993Z,73.80
2023-01-01T06:45:25.655Z,73.80
2023-01-01T06:47:57.043Z,72.80
2023-01-01T06:50:27.153Z,73.00
2023-01-01T06:53:01.105Z,71.20
2023-01-01T06:55:31.697Z,70.50
2023-01-01T06:58:04.634Z,70.40
2023-01-01T07:00:35.135Z,71.10
2023-01-01T07:03:05.327Z,71.30
2023-01-01T07:05:35.381Z,69.40
2023-01-01T07:08:05.952Z,66.10
2023-01-01T07:10:36.328Z,66.70
2023-01-01T07:13:06.067Z,67.10
2023-01-01T07:15:36.502Z,67.00
2023-01-01T07:18:05.924Z,67.90
2023-01-01T07:20:35.777Z,68.20
2023-01-01T07:23:06.016Z,69.10
2023-01-01T07:25:35.921Z,69.50
2023-01-01T07:28:05.756Z,68.70
2023-01-01T07:30:35.725Z,68.30
2023-01-01T07:33:05.575Z,69.60
2023-01-01T07:35:35.711Z,69.90
2023-01-01T07:38:06.537Z,71.10
2023-01-01T07:40:37.499Z,71.90
2023-01-01T07:43:07.949Z,71.90
2023-01-01T07:45:41.991Z,72.10
2023-01-01T07:48:17.913Z,72.40
2023-01-01T07:50:48.050Z,72.10
2023-01-01T07:53:22.017Z,71.90
2023-01-01T07:55:52.837Z,72.00
2023-01-01T07:58:27.289Z,70.60
2023-01-01T08:00:57.177Z,70.60
2023-01-01T08:03:27.863Z,70.90
2023-01-01T08:05:58.241Z,70.50
2023-01-01T08:08:29.243Z,71.20
2023-01-01T08:11:04.292Z,71.90
2023-01-01T08:13:34.993Z,73.60
2023-01-01T08:16:05.748Z,72.60
2023-01-01T08:18:36.302Z,74.10
2023-01-01T08:21:07.198Z,73.90
2023-01-01T08:23:37.997Z,73.80
2023-01-01T08:26:08.139Z,73.90
2023-01-01T08:28:39.625Z,73.60
2023-01-01T08:31:12.232Z,74.00
2023-01-01T08:33:42.082Z,74.50
2023-01-01T08:36:15.179Z,74.40
2023-01-01T08:38:46.714Z,74.10
2023-01-01T08:41:16.741Z,74.20
2023-01-01T08:43:46.907Z,75.20
2023-01-01T08:46:19.919Z,75.60
2023-01-01T08:48:50.355Z,75.30
2023-01-01T08:51:21.018Z,74.80
2023-01-01T08:53:56.629Z,73.90
2023-01-01T08:56:36.068Z,74.30
2023-01-01T08:59:06.775Z,74.60
2023-01-01T09:01:40.088Z,74.70
2023-01-01T09:04:15.948Z,75.40
2023-01-01T09:06:52.212Z,75.30
2023-01-01T09:09:27.286Z,75.00
2023-01-01T09:12:11.447Z,75.20
2023-01-01T09:14:40.993Z,74.60
2023-01-01T09:17:11.617Z,74.80
2023-01-01T09:19:42.631Z,75.70
2023-01-01T09:22:15.264Z,75.60
2023-01-01T09:24:45.507Z,75.90
2023-01-01T09:27:15.831Z,76.30
2023-01-01T09:29:45.858Z,76.20
2023-01-01T09:32:16.040Z,76.50
2023-01-01T09:34:50.469Z,76.70
2023-01-01T09:37:22.595Z,76.80
2023-01-01T09:39:55.578Z,77.10
2023-01-01T09:42:50.791Z,77.20
2023-01-01T09:45:33.963Z,77.20
2023-01-01T09:48:19.389Z,78.00
2023-01-01T09:50:50.236Z,78.00
2023-01-01T09:53:37.100Z,78.10
2023-01-01T09:56:08.334Z,77.90
2023-01-01T09:58:40.418Z,78.50
2023-01-01T10:01:50.528Z,78.20
2023-01-01T10:04:52.583Z,78.60
2023-01-01T10:07:52.602Z,79.20
2023-01-01T10:10:38.959Z,79.40
2023-01-01T10:13:32.639Z,79.20
2023-01-01T10:16:22.265Z,79.10
2023-01-01T10:19:00.052Z,79.10
2023-01-01T10:21:42.109Z,79.90
2023-01-01T10:24:40.421Z,80.20
2023-01-01T10:27:14.828Z,80.70
2023-01-01T10:29:49.213Z,80.70
2023-01-01T10:32:36.939Z,81.10
2023-01-01T10:35:16.633Z,81.30
2023-01-01T10:37:46.865Z,81.60
2023-01-01T10:40:22.261Z,81.80
2023-01-01T10:42:56.708Z,81.80
2023-01-01T10:45:47.232Z,82.50
2023-01-01T10:48:33.240Z,82.60
2023-01-01T10:51:08.319Z,83.30
2023-01-01T10:53:45.958Z,83.30
2023-01-01T10:56:18.131Z,83.30
2023-01-01T10:58:54.187Z,83.70
2023-01-01T11:01:31.448Z,83.50
2023-01-01T11:04:22.609Z,83.90
2023-01-01T11:06:52.719Z,84.20
2023-01-01T11:09:28.048Z,85.10
2023-01-01T11:12:11.836Z,84.90
2023-01-01T11:15:00.151Z,85.00
2023-01-01T11:17:33.362Z,85.00
2023-01-01T11:20:06.083Z,85.60
2023-01-01T11:22:50.593Z,85.10
2023-01-01T11:25:24.266Z,85.30
2023-01-01T11:27:54.843Z,85.50
2023-01-01T11:30:25.700Z,85.80
2023-01-01T11:33:00.344Z,86.10
2023-01-01T11:35:36.157Z,86.00
2023-01-01T11:38:06.395Z,86.10
2023-01-01T11:40:47.344Z,86.30
2023-01-01T11:43:20.991Z,86.50
2023-01-01T11:45:52.206Z,86.60
2023-01-01T11:48:28.092Z,86.90
2023-01-01T11:51:00.816Z,87.20
2023-01-01T11:53:36.061Z,87.10
2023-01-01T11:56:25.677Z,87.00
2023-01-01T11:59:00.972Z,87.50
2023-01-01T12:01:56.114Z,87.10
2023-01-01T12:04:50.029Z,87.60
2023-01-01T12:07:29.157Z,87.80
2023-01-01T12:10:13.966Z,87.90
2023-01-01T12:13:07.645Z,88.10
2023-01-01T12:15:43.387Z,88.20
2023-01-01T12:18:36.885Z,88.50
2023-01-01T12:21:33.138Z,88.90
2023-01-01T12:24:04.827Z,89.20
2023-01-01T12:26:57.976Z,89.70
2023-01-01T12:29:55.159Z,90.00
2023-01-01T12:33:08.078Z,90.10
2023-01-01T12:36:01.000Z,90.10
2023-01-01T12:39:04.079Z,90.20
2023-01-01T12:41:48.343Z,90.40
2023-01-01T12:44:57.132Z,90.60
2023-01-01T12:48:00.957Z,90.70
2023-01-01T12:51:09.733Z,90.80
2023-01-01T12:54:02.768Z,90.80
2023-01-01T12:56:54.651Z,91.00
2023-01-01T12:59:32.996Z,91.10
2023-01-01T13:02:12.479Z,91.20
2023-01-01T13:04:44.693Z,91.30
2023-01-01T13:07:21.121Z,91.30
2023-01-01T13:09:51.981Z,91.20
2023-01-01T13:12:26.209Z,91.20
2023-01-01T13:14:56.595Z,91.20
2023-01-01T13:17:29.504Z,91.20
2023-01-01T13:20:22.772Z,91.30
2023-01-01T13:22:52.781Z,91.40
2023-01-01T13:25:26.057Z,91.50
2023-01-01T13:28:08.012Z,91.50
2023-01-01T13:30:52.400Z,91.60
2023-01-01T13:33:30.962Z,91.60
2023-01-01T13:36:32.673Z,91.70
2023-01-01T13:39:07.101Z,91.80
2023-01-01T13:41:48.782Z,91.90
2023-01-01T13:44:25.974Z,91.80
2023-01-01T13:47:15.337Z,91.90
2023-01-01T13:50:13.815Z,91.90
2023-01-01T13:53:16.276Z,91.90
2023-01-01T13:56:00.136Z,91.80
2023-01-01T13:59:00.930Z,91.80
2023-01-01T14:01:57.837Z,91.70
2023-01-01T14:04:53.695Z,91.80
2023-01-01T14:07:51.088Z,91.80
2023-01-01T14:10:41.091Z,91.80
2023-01-01T14:13:19.530Z,91.90
2023-01-01T14:16:05.003Z,91.90
2023-01-01T14:18:41.736Z,92.00
2023-01-01T14:21:17.176Z,92.10
2023-01-01T14:24:06.593Z,92.20
2023-01-01T14:26:40.050Z,92.20
2023-01-01T14:29:18.304Z,92.20
2023-01-01T14:31:49.245Z,92.20
2023-01-01T14:34:36.633Z,92.30
2023-01-01T14:37:21.569Z,92.30
2023-01-01T14:40:08.802Z,92.30
2023-01-01T14:42:39.890Z,92.30
2023-01-01T14:45:18.116Z,92.20
2023-01-01T14:47:58.605Z,92.20
2023-01-01T14:50:34.603Z,92.20
2023-01-01T14:53:28.015Z,92.20
2023-01-01T14:55:57.996Z,92.30
2023-01-01T14:58:31.996Z,92.30
2023-01-01T15:01:29.313Z,92.20
2023-01-01T15:04:03.247Z,92.30
2023-01-01T15:06:34.504Z,92.70
2023-01-01T15:09:05.269Z,92.40
2023-01-01T15:11:34.705Z,92.40
2023-01-01T15:14:06.189Z,92.40
2023-01-01T15:16:40.052Z,92.40
2023-01-01T15:19:22.071Z,92.50
2023-01-01T15:21:52.161Z,92.40
2023-01-01T15:24:27.804Z,92.40
2023-01-01T15:27:00.908Z,92.40
2023-01-01T15:29:43.173Z,92.40
2023-01-01T15:32:17.751Z,92.40
2023-01-01T15:34:54.434Z,92.40
2023-01-01T15:37:45.442Z,92.50
2023-01-01T15:40:36.859Z,92.50
2023-01-01T15:43:16.704Z,92.50
2023-01-01T15:46:02.441Z,92.50
2023-01-01T15:48:49.414Z,92.50
2023-01-01T15:51:23.813Z,92.60
2023-01-01T15:53:59.988Z,92.60
2023-01-01T15:56:35.881Z,92.50
2023-01-01T15:59:10.107Z,92.50
2023-01-01T16:01:42.768Z,92.50
2023-01-01T16:04:27.668Z,92.50
2023-01-01T16:07:01.180Z,92.50
2023-01-01T16:09:31.747Z,92.40
2023-01-01T16:12:02.261Z,92.40
2023-01-01T16:14:32.330Z,92.30
2023-01-01T16:17:04.799Z,92.50
2023-01-01T16:19:36.490Z,92.60
2023-01-01T16:22:06.734Z,92.50
2023-01-01T16:24:38.811Z,92.60
2023-01-01T16:27:08.931Z,92.60
2023-01-01T16:29:41.287Z,92.70
2023-01-01T16:32:20.782Z,92.80
2023-01-01T16:34:51.658Z,92.70
2023-01-01T16:37:24.421Z,92.70
2023-01-01T16:39:54.420Z,92.70
2023-01-01T16:42:24.692Z,92.80
2023-01-01T16:44:55.183Z,92.90
2023-01-01T16:47:33.841Z,92.90
2023-01-01T16:50:05.548Z,92.90
2023-01-01T16:52:39.491Z,93.00
2023-01-01T16:55:12.810Z,93.00
2023-01-01T16:57:42.982Z,92.90
2023-01-01T17:00:13.711Z,92.90
2023-01-01T17:02:43.752Z,93.10
2023-01-01T17:05:13.836Z,93.10
2023-01-01T17:07:43.989Z,93.20
2023-01-01T17:10:14.324Z,93.10
2023-01-01T17:12:44.330Z,93.20
2023-01-01T17:15:14.458Z,93.20
2023-01-01T17:17:45.327Z,93.20
2023-01-01T17:20:15.301Z,93.10
2023-01-01T17:22:45.094Z,93.00
2023-01-01T17:25:15.064Z,92.90
2023-01-01T17:27:47.439Z,93.10
2023-01-01T17:30:19.305Z,93.00
2023-01-01T17:32:49.409Z,92.90
2023-01-01T17:35:29.901Z,93.10
2023-01-01T17:38:04.999Z,92.80
2023-01-01T17:40:37.092Z,92.70
2023-01-01T17:43:07.492Z,92.70
2023-01-01T17:45:39.270Z,92.70
2023-01-01T17:48:09.476Z,92.60
2023-01-01T17:50:39.366Z,92.50
2023-01-01T17:53:13.923Z,92.50
2023-01-01T17:55:44.246Z,92.60
2023-01-01T17:58:14.139Z,92.70
2023-01-01T18:00:44.199Z,92.60
2023-01-01T18:03:19.747Z,92.60
2023-01-01T18:05:49.725Z,92.70
2023-01-01T18:08:20.715Z,92.50
2023-01-01T18:11:00.139Z,92.50
2023-01-01T18:13:32.758Z,92.40
2023-01-01T18:16:04.080Z,92.30
2023-01-01T18:18:38.192Z,92.40
2023-01-01T18:21:13.745Z,92.30
2023-01-01T18:23:44.861Z,92.30
2023-01-01T18:26:15.318Z,92.20
2023-01-01T18:28:45.921Z,92.10
2023-01-01T18:31:18.864Z,92.20
2023-01-01T18:33:49.522Z,92.20
2023-01-01T18:36:23.439Z,92.20
2023-01-01T18:39:01.258Z,92.30
2023-01-01T18:42:03.850Z,92.20
2023-01-01T18:44:35.389Z,92.30
2023-01-01T18:47:22.355Z,92.20
2023-01-01T18:49:56.319Z,92.10
2023-01-01T18:52:30.050Z,92.00
2023-01-01T18:55:17.136Z,92.10
2023-01-01T18:57:52.181Z,92.20
2023-01-01T19:00:27.716Z,92.30
2023-01-01T19:03:07.552Z,92.20
2023-01-01T19:05:39.196Z,92.20
2023-01-01T19:08:23.988Z,92.10
2023-01-01T19:10:56.979Z,92.10
2023-01-01T19:13:34.421Z,92.10
2023-01-01T19:16:26.112Z,92.20
2023-01-01T19:18:58.395Z,92.40
2023-01-01T19:21:28.327Z,92.40
2023-01-01T19:24:00.691Z,92.40
2023-01-01T19:26:36.676Z,92.20
2023-01-01T19:29:27.444Z,92.10
2023-01-01T19:31:59.278Z,92.10
2023-01-01T19:34:29.156Z,92.20
2023-01-01T19:36:59.101Z,92.10
2023-01-01T19:39:29.221Z,92.40
2023-01-01T19:42:05.334Z,92.20
2023-01-01T19:44:37.010Z,92.10
2023-01-01T19:47:07.193Z,92.20
2023-01-01T19:49:37.293Z,92.20
2023-01-01T19:52:07.974Z,92.20
2023-01-01T19:54:37.220Z,92.40
2023-01-01T19:57:07.366Z,92.20
2023-01-01T19:59:37.222Z,92.20
2023-01-01T20:04:57.117Z,92.20
2023-01-01T20:07:27.044Z,92.10
2023-01-01T20:10:00.382Z,92.00
2023-01-01T20:12:30.280Z,92.10
2023-01-01T20:15:00.350Z,92.30
2023-01-01T20:17:32.220Z,92.30
2023-01-01T20:20:02.346Z,92.20
2023-01-01T20:22:32.216Z,92.10
2023-01-01T20:25:02.150Z,91.90
2023-01-01T20:27:32.101Z,91.80
2023-01-01T20:30:02.029Z,92.00
2023-01-01T20:32:31.942Z,92.20
2023-01-01T20:35:02.540Z,92.20
2023-01-01T20:37:39.451Z,92.20
2023-01-01T20:40:12.212Z,92.20
2023-01-01T20:42:42.048Z,92.30
2023-01-01T20:45:12.456Z,92.30
2023-01-01T20:47:42.800Z,92.30
2023-01-01T20:50:12.765Z,92.30
2023-01-01T20:52:42.827Z,92.40
2023-01-01T20:55:12.839Z,92.60
2023-01-01T20:57:42.681Z,92.70
2023-01-01T21:00:13.291Z,92.70
2023-01-01T21:02:43.447Z,92.70
2023-01-01T21:05:13.450Z,92.70
2023-01-01T21:07:43.377Z,92.80
2023-01-01T21:10:13.506Z,92.70
2023-01-01T21:12:43.384Z,92.60
2023-01-01T21:15:17.633Z,92.70
2023-01-01T21:17:47.584Z,92.70
2023-01-01T21:20:17.656Z,92.70
2023-01-01T21:22:49.677Z,92.70
2023-01-01T21:28:19.376Z,93.10
2023-01-01T21:30:55.692Z,92.90
2023-01-01T21:33:30.620Z,92.90
2023-01-01T21:36:04.163Z,92.80
2023-01-01T21:38:35.118Z,93.00
2023-01-01T21:41:05.439Z,92.90
2023-01-01T21:43:44.296Z,92.90
2023-01-01T21:46:34.748Z,93.10
2023-01-01T21:49:25.242Z,93.00
2023-01-01T21:52:04.807Z,92.90
2023-01-01T21:54:40.216Z,93.10
2023-01-01T21:57:24.360Z,93.10
2023-01-01T21:59:56.027Z,93.10
2023-01-01T22:02:36.826Z,93.10
2023-01-01T22:05:29.586Z,93.30
2023-01-01T22:08:00.738Z,93.20
2023-01-01T22:10:37.969Z,93.20
2023-01-01T22:13:17.091Z,93.30
2023-01-01T22:15:48.218Z,93.20
2023-01-01T22:18:32.478Z,93.20
2023-01-01T22:21:04.447Z,93.20
2023-01-01T22:23:41.947Z,93.30
2023-01-01T22:26:23.851Z,93.30
2023-01-01T22:29:00.299Z,93.20
2023-01-01T22:31:34.024Z,93.20
2023-01-01T22:34:06.982Z,93.10
2023-01-01T22:36:39.453Z,93.10
2023-01-01T22:39:29.036Z,93.10
2023-01-01T22:41:59.887Z,93.20
2023-01-01T22:44:29.395Z,93.30
2023-01-01T22:47:03.285Z,93.30
2023-01-01T22:49:40.715Z,93.20
2023-01-01T22:52:13.051Z,93.10
2023-01-01T22:54:42.908Z,92.90
2023-01-01T22:57:12.900Z,93.00
2023-01-01T22:59:42.992Z,93.10
2023-01-01T23:02:12.990Z,93.20
2023-01-01T23:04:42.948Z,93.20
2023-01-01T23:07:16.148Z,93.20
2023-01-01T23:09:47.886Z,93.40
2023-01-01T23:12:17.934Z,93.40
2023-01-01T23:14:59.623Z,93.50
2023-01-01T23:17:29.631Z,93.50
2023-01-01T23:20:00.410Z,93.40
2023-01-01T23:22:31.535Z,93.30
2023-01-01T23:25:01.628Z,93.10
2023-01-01T23:27:31.667Z,93.10
2023-01-01T23:30:03.120Z,93.20
2023-01-01T23:32:33.310Z,93.40
2023-01-01T23:35:03.351Z,93.40
2023-01-01T23:37:33.281Z,93.50
2023-01-01T23:40:03.223Z,93.50
2023-01-01T23:42:33.228Z,93.50
2023-01-01T23:45:03.137Z,93.70
2023-01-01T23:47:33.049Z,93.70
2023-01-01T23:50:04.041Z,93.70
2023-01-01T23:52:34.055Z,93.70
2023-01-01T23:55:04.069Z,93.70
2023-01-01T23:57:33.805Z,93.50
